Time;durP1;ratioP1;P1;durP2;ratioP2;P2;SDS_P1;SDS_P2;PMS_P1;PMS_P2;Temp;Humidity;BMP_temperature;BMP_pressure;BME280_temperature;BME280_humidity;BME280_pressure;Samples;Min_cycle;Max_cycle;Signal;HPM_P1;HPM_P2
2021/01/05 00:01:45;;;;;;;35.37;19.20;;;;;;;0.21;100.00;100392.65;1705390;84;21632;-70
2021/01/05 00:04:12;;;;;;;38.83;20.83;;;;;;;0.22;100.00;100394.31;1705260;83;21290;-71
2021/01/05 00:06:40;;;;;;;39.13;22.47;;;;;;;0.22;100.00;100389.02;1712715;82;21040;-70
2021/01/05 00:09:09;;;;;;;32.93;15.30;;;;;;;0.19;100.00;100381.43;1734441;82;21123;-73
2021/01/05 00:11:58;;;;;;;32.30;21.30;;;;;;;0.14;100.00;100371.34;1733204;82;21099;-70
2021/01/05 00:14:26;;;;;;;28.03;17.03;;;;;;;0.11;100.00;100369.02;1734856;82;21564;-71
2021/01/05 00:16:54;;;;;;;32.77;20.93;;;;;;;0.14;100.00;100375.81;1734884;82;21211;-76
2021/01/05 00:19:23;;;;;;;32.13;19.07;;;;;;;0.11;100.00;100377.44;1735110;82;21021;-77
2021/01/05 00:21:51;;;;;;;44.40;23.40;;;;;;;0.12;100.00;100379.93;1735008;82;21163;-72
2021/01/05 00:24:19;;;;;;;34.67;20.00;;;;;;;0.09;100.00;100381.59;1735569;82;20961;-72
2021/01/05 00:26:46;;;;;;;28.43;17.07;;;;;;;0.11;100.00;100388.02;1709294;82;21139;-73
2021/01/05 00:29:15;;;;;;;29.57;18.67;;;;;;;0.15;100.00;100391.48;1706309;82;22299;-71
2021/01/05 00:31:42;;;;;;;30.93;18.20;;;;;;;0.09;100.00;100388.20;1730438;82;20997;-74
2021/01/05 00:34:09;;;;;;;37.73;21.97;;;;;;;0.12;100.00;100384.39;1713996;82;21580;-74
2021/01/05 00:36:37;;;;;;;33.07;19.80;;;;;;;0.08;100.00;100377.30;1705332;84;21155;-72
2021/01/05 00:39:06;;;;;;;25.30;16.20;;;;;;;0.07;100.00;100376.95;1723661;82;21577;-73
2021/01/05 00:41:33;;;;;;;29.57;19.23;;;;;;;0.11;100.00;100387.53;1728901;82;21211;-74
2021/01/05 00:44:01;;;;;;;26.67;16.43;;;;;;;0.12;100.00;100385.71;1732673;82;21154;-71
2021/01/05 00:46:30;;;;;;;30.80;17.07;;;;;;;0.04;100.00;100383.91;1712776;82;21208;-70
2021/01/05 00:48:58;;;;;;;30.87;18.80;;;;;;;0.02;100.00;100383.72;1733366;82;21636;-69
2021/01/05 00:51:26;;;;;;;30.17;16.10;;;;;;;-0.01;100.00;100387.05;1711468;82;21155;-71
2021/01/05 00:53:54;;;;;;;29.77;17.67;;;;;;;0.02;100.00;100387.20;1705284;84;21228;-70
2021/01/05 00:56:22;;;;;;;31.53;17.97;;;;;;;0.03;100.00;100387.53;1705311;84;21172;-71
2021/01/05 00:58:51;;;;;;;24.40;14.90;;;;;;;0.09;100.00;100389.53;1708859;82;21207;-71
2021/01/05 01:01:20;;;;;;;22.87;13.20;;;;;;;0.13;100.00;100384.73;1734639;81;21681;-70
2021/01/05 01:03:49;;;;;;;23.53;16.77;;;;;;;0.10;100.00;100386.36;1734806;82;21127;-70
2021/01/05 01:06:18;;;;;;;28.60;16.63;;;;;;;0.02;100.00;100399.59;1734944;82;21377;-69
2021/01/05 01:08:46;;;;;;;25.93;17.23;;;;;;;-0.01;100.00;100398.11;1734621;82;21128;-72
2021/01/05 01:11:14;;;;;;;19.03;12.60;;;;;;;-0.02;100.00;100397.78;1710594;82;22174;-71
2021/01/05 01:13:41;;;;;;;23.30;14.90;;;;;;;0.04;100.00;100392.33;1707873;82;21207;-72
2021/01/05 01:16:09;;;;;;;25.43;16.50;;;;;;;0.04;100.00;100397.62;1708367;82;21701;-71
2021/01/05 01:18:37;;;;;;;22.17;14.17;;;;;;;0.00;100.00;100393.96;1706234;82;21368;-71
2021/01/05 01:21:05;;;;;;;22.33;12.70;;;;;;;0.06;100.00;100387.69;1721847;82;21198;-70
2021/01/05 01:23:33;;;;;;;22.97;15.13;;;;;;;0.04;100.00;100385.72;1705334;84;21082;-68
2021/01/05 01:26:01;;;;;;;18.40;11.87;;;;;;;0.06;100.00;100376.61;1705288;84;21633;-73
2021/01/05 01:28:28;;;;;;;21.50;14.03;;;;;;;0.11;100.00;100375.63;1705992;82;21577;-72
2021/01/05 01:30:56;;;;;;;26.53;17.43;;;;;;;0.10;100.00;100375.29;1723717;82;21378;-73
2021/01/05 01:33:25;;;;;;;25.70;16.10;;;;;;;0.10;100.00;100366.52;1733277;82;21631;-74
2021/01/05 01:35:53;;;;;;;16.60;10.17;;;;;;;0.08;100.00;100369.36;1731614;82;21181;-68
2021/01/05 01:38:21;;;;;;;18.13;10.17;;;;;;;0.12;100.00;100356.62;1710772;82;21175;-72
2021/01/05 01:40:58;;;;;;;19.87;12.43;;;;;;;0.18;100.00;100357.29;1891551;74;22081;-69
2021/01/05 01:43:30;;;;;;;22.73;15.50;;;;;;;0.05;100.00;100355.65;1898509;75;21034;-78
2021/01/05 01:45:59;;;;;;;24.50;14.53;;;;;;;0.06;100.00;100357.28;1824823;78;21407;-77
2021/01/05 01:48:28;;;;;;;23.27;14.10;;;;;;;0.08;100.00;100365.88;1822227;77;21019;-74
2021/01/05 01:51:00;;;;;;;22.77;14.60;;;;;;;0.07;100.00;100356.29;1793262;79;20983;-79
2021/01/05 01:53:44;;;;;;;17.98;11.30;;;;;;;0.04;100.00;100357.46;1787517;80;21173;-78
2021/01/05 01:56:54;;;;;;;22.20;14.07;;;;;;;0.08;100.00;100361.92;1787643;80;20947;-76
2021/01/05 01:59:50;;;;;;;23.07;13.73;;;;;;;-0.01;100.00;100359.28;1797610;79;21346;-71
2021/01/05 02:02:25;;;;;;;30.20;17.37;;;;;;;0.00;100.00;100363.55;1768996;81;21002;-69
2021/01/05 02:05:10;;;;;;;23.03;14.73;;;;;;;-0.04;100.00;100360.92;1752263;81;21050;-72
2021/01/05 02:08:23;;;;;;;20.50;11.20;;;;;;;0.00;100.00;100360.11;1739883;81;21659;-65
2021/01/05 02:11:14;;;;;;;23.70;13.90;;;;;;;0.05;100.00;100357.77;1732439;81;21622;-72
2021/01/05 02:13:48;;;;;;;26.37;16.07;;;;;;;0.03;100.00;100357.12;1732409;82;22159;-68
2021/01/05 02:16:37;;;;;;;26.53;15.67;;;;;;;-0.02;100.00;100360.76;1732665;81;21153;-68
2021/01/05 02:19:27;;;;;;;24.00;15.07;;;;;;;0.00;100.00;100358.27;1737441;81;21563;-68
2021/01/05 02:22:22;;;;;;;18.53;12.63;;;;;;;0.04;100.00;100351.34;1762260;81;20975;-68
2021/01/05 02:25:02;;;;;;;20.57;12.97;;;;;;;0.04;100.00;100349.53;1732037;81;21232;-71
2021/01/05 02:27:31;;;;;;;17.43;10.30;;;;;;;0.00;100.00;100342.92;1752859;81;21489;-67
2021/01/05 02:30:01;;;;;;;20.40;12.13;;;;;;;0.03;100.00;100349.69;1757658;81;21579;-67
2021/01/05 02:33:06;;;;;;;23.10;13.43;;;;;;;0.07;100.00;100345.72;1755279;81;21196;-68
2021/01/05 02:36:28;;;;;;;14.25;9.38;;;;;;;0.06;100.00;100348.02;1742232;80;21577;-68
2021/01/05 02:39:37;;;;;;;18.37;11.90;;;;;;;0.04;100.00;100343.41;1764511;80;21232;-66
2021/01/05 02:43:00;;;;;;;19.97;11.30;;;;;;;0.04;100.00;100340.77;1746607;81;23602;-67
2021/01/05 02:46:12;;;;;;;19.77;12.73;;;;;;;0.08;100.00;100332.33;1740331;82;21089;-66
2021/01/05 02:49:28;;;;;;;21.50;14.17;;;;;;;0.02;100.00;100324.23;1749066;81;21021;-67
2021/01/05 02:52:28;;;;;;;20.70;12.83;;;;;;;0.06;100.00;100328.19;1761176;80;21777;-67
2021/01/05 02:56:06;;;;;;;18.07;12.50;;;;;;;0.05;100.00;100318.10;1739820;82;21180;-67
2021/01/05 02:59:25;;;;;;;18.40;10.97;;;;;;;0.06;100.00;100318.44;1770313;81;21273;-68
2021/01/05 03:02:54;;;;;;;20.00;13.30;;;;;;;0.02;100.00;100316.30;1770351;81;21646;-68
2021/01/05 03:05:47;;;;;;;27.47;15.20;;;;;;;0.03;100.00;100314.81;1760211;80;21161;-68
2021/01/05 03:08:34;;;;;;;26.50;16.07;;;;;;;0.11;100.00;100308.68;1760873;80;21122;-67
2021/01/05 03:11:25;;;;;;;23.17;13.13;;;;;;;0.09;100.00;100301.43;1760359;81;21202;-66
2021/01/05 03:14:39;;;;;;;28.53;18.07;;;;;;;0.10;100.00;100303.89;1760353;81;21449;-68
2021/01/05 03:17:44;;;;;;;26.95;15.53;;;;;;;0.16;100.00;100301.90;1763542;81;21575;-68
2021/01/05 03:20:31;;;;;;;31.53;19.63;;;;;;;0.18;100.00;100292.48;1840011;76;22672;-67
2021/01/05 03:23:16;;;;;;;24.27;14.97;;;;;;;0.16;100.00;100291.32;1718156;83;21077;-66
2021/01/05 03:26:06;;;;;;;18.47;14.03;;;;;;;0.20;100.00;100284.70;1786656;79;21426;-69
2021/01/05 03:28:47;;;;;;;20.03;11.90;;;;;;;0.21;100.00;100277.59;1776827;79;21293;-67
2021/01/05 03:31:46;;;;;;;19.20;13.77;;;;;;;0.21;100.00;100278.42;1817206;79;21047;-65
2021/01/05 03:34:34;;;;;;;18.00;10.40;;;;;;;0.17;100.00;100270.50;1826551;76;22681;-67
2021/01/05 03:37:21;;;;;;;23.43;14.53;;;;;;;0.09;100.00;100270.53;1646624;85;21175;-66
2021/01/05 03:40:11;;;;;;;23.83;13.00;;;;;;;0.03;100.00;100279.61;1668950;84;21182;-66
2021/01/05 03:43:06;;;;;;;24.67;14.33;;;;;;;0.03;100.00;100271.19;1844193;76;22656;-66
2021/01/05 03:45:52;;;;;;;27.90;15.53;;;;;;;-0.02;100.00;100280.95;1718219;83;21018;-66
2021/01/05 03:48:38;;;;;;;20.10;13.43;;;;;;;0.05;100.00;100279.76;1772588;80;21318;-67
2021/01/05 03:51:24;;;;;;;17.90;11.10;;;;;;;0.12;100.00;100265.38;1785943;79;21006;-68
2021/01/05 03:54:11;;;;;;;25.10;14.53;;;;;;;0.09;100.00;100274.98;1785072;80;21018;-66
2021/01/05 03:56:58;;;;;;;20.17;12.73;;;;;;;0.10;100.00;100278.77;1750482;81;20946;-69
2021/01/05 03:59:45;;;;;;;26.63;18.63;;;;;;;0.13;100.00;100277.13;1734140;81;21065;-66
2021/01/05 04:02:32;;;;;;;29.03;18.60;;;;;;;0.14;100.00;100285.39;1801264;79;21360;-66
2021/01/05 04:05:00;;;;;;;25.30;16.63;;;;;;;0.12;100.00;100284.72;1816935;79;21646;-65
2021/01/05 04:07:27;;;;;;;22.07;13.97;;;;;;;0.13;100.00;100278.94;1799717;79;21528;-67
2021/01/05 04:09:55;;;;;;;22.80;13.97;;;;;;;0.14;100.00;100280.59;1784976;80;21109;-67
2021/01/05 04:12:23;;;;;;;27.80;16.17;;;;;;;0.13;100.00;100283.73;1798071;79;21102;-65
2021/01/05 04:14:50;;;;;;;17.40;12.20;;;;;;;0.10;100.00;100280.09;1797094;79;21385;-66
2021/01/05 04:17:18;;;;;;;21.10;13.73;;;;;;;0.14;100.00;100277.95;1784929;80;21141;-66
2021/01/05 04:19:45;;;;;;;22.03;12.60;;;;;;;0.17;100.00;100274.96;1786809;79;21165;-66
2021/01/05 04:22:12;;;;;;;22.80;14.10;;;;;;;0.12;100.00;100274.64;1811353;79;21007;-66
2021/01/05 04:24:39;;;;;;;24.20;14.53;;;;;;;0.09;100.00;100266.56;1800895;79;21161;-67
2021/01/05 04:27:07;;;;;;;24.37;16.37;;;;;;;0.07;100.00;100265.06;1784982;80;21451;-68
2021/01/05 04:29:34;;;;;;;34.33;16.93;;;;;;;0.06;100.00;100268.69;1784992;79;21961;-66
2021/01/05 04:32:02;;;;;;;25.17;15.10;;;;;;;0.10;100.00;100268.67;1784992;80;20991;-66
2021/01/05 04:34:30;;;;;;;26.37;15.20;;;;;;;0.14;100.00;100272.17;1792935;79;21038;-66
2021/01/05 04:36:57;;;;;;;36.10;19.50;;;;;;;0.18;100.00;100270.84;1797746;79;21094;-67
2021/01/05 04:39:25;;;;;;;27.07;17.13;;;;;;;0.20;100.00;100269.32;1815641;79;21195;-68
2021/01/05 04:42:14;;;;;;;20.87;12.83;;;;;;;0.21;100.00;100267.02;1811106;78;21137;-66
2021/01/05 04:44:59;;;;;;;21.03;13.53;;;;;;;0.16;100.00;100260.91;1817231;79;21173;-65
2021/01/05 04:48:02;;;;;;;23.00;15.17;;;;;;;0.20;100.00;100264.03;1817084;79;21019;-65
2021/01/05 04:50:40;;;;;;;24.63;14.30;;;;;;;0.18;100.00;100261.58;1744966;79;21229;-67
2021/01/05 04:53:40;;;;;;;24.20;13.77;;;;;;;0.21;100.00;100269.66;1816929;79;21218;-66
2021/01/05 04:56:12;;;;;;;27.50;14.40;;;;;;;0.23;100.00;100267.19;1784367;80;21176;-65
2021/01/05 04:58:50;;;;;;;27.40;14.53;;;;;;;0.24;100.00;100264.84;1790710;79;21133;-66
2021/01/05 05:01:32;;;;;;;26.30;14.83;;;;;;;0.20;100.00;100269.32;1784333;80;21015;-66
2021/01/05 05:04:23;;;;;;;22.23;14.20;;;;;;;0.12;100.00;100270.17;1755398;79;21145;-65
2021/01/05 05:07:18;;;;;;;20.80;12.37;;;;;;;0.08;100.00;100263.58;1783283;80;21332;-65
2021/01/05 05:09:55;;;;;;;21.03;13.60;;;;;;;0.09;100.00;100265.23;1784292;80;21125;-67
2021/01/05 05:13:03;;;;;;;23.50;13.43;;;;;;;0.14;100.00;100257.63;1784360;80;21145;-66
2021/01/05 05:15:40;;;;;;;23.23;15.73;;;;;;;0.17;100.00;100250.66;1787400;79;21171;-66
2021/01/05 05:18:25;;;;;;;21.00;12.30;;;;;;;0.13;100.00;100255.97;1812939;79;21094;-66
2021/01/05 05:21:35;;;;;;;21.50;14.07;;;;;;;0.11;100.00;100260.59;1796706;79;21003;-65
2021/01/05 05:24:20;;;;;;;19.93;11.70;;;;;;;0.10;100.00;100262.06;1811199;79;21145;-67
2021/01/05 05:27:27;;;;;;;28.87;15.30;;;;;;;0.09;100.00;100259.12;1784643;80;21631;-65
2021/01/05 05:30:18;;;;;;;23.67;13.00;;;;;;;0.11;100.00;100263.23;1784336;80;21145;-65
2021/01/05 05:32:54;;;;;;;24.50;13.27;;;;;;;0.12;100.00;100266.70;1783527;80;21125;-66
2021/01/05 05:36:08;;;;;;;30.80;17.10;;;;;;;0.07;100.00;100269.03;1806763;79;21129;-66
2021/01/05 05:39:08;;;;;;;23.43;15.07;;;;;;;0.07;100.00;100265.06;1816384;79;21035;-64
2021/01/05 05:42:00;;;;;;;21.20;13.53;;;;;;;0.12;100.00;100258.28;1814970;78;21564;-66
2021/01/05 05:44:53;;;;;;;23.47;13.30;;;;;;;0.20;100.00;100253.45;1802946;79;21004;-67
2021/01/05 05:47:29;;;;;;;23.75;15.35;;;;;;;0.15;100.00;100246.03;1780075;80;21161;-65
2021/01/05 05:50:16;;;;;;;21.33;15.50;;;;;;;0.12;100.00;100249.52;1779910;80;21412;-65
2021/01/05 05:52:57;;;;;;;24.93;14.43;;;;;;;0.12;100.00;100234.48;1780049;79;21003;-66
2021/01/05 05:55:56;;;;;;;26.87;15.43;;;;;;;0.10;100.00;100245.70;1757242;80;21567;-67
2021/01/05 05:58:28;;;;;;;26.53;15.30;;;;;;;0.07;100.00;100242.09;1779884;80;21647;-65
2021/01/05 06:00:58;;;;;;;22.43;12.20;;;;;;;0.03;100.00;100237.31;1780583;79;21094;-67
2021/01/05 06:03:28;;;;;;;29.60;18.35;;;;;;;0.05;100.00;100245.39;1774165;79;21547;-66
2021/01/05 06:05:56;;;;;;;36.10;23.73;;;;;;;0.08;100.00;100244.23;1811209;79;21142;-67
2021/01/05 06:08:24;;;;;;;28.63;16.27;;;;;;;0.06;100.00;100247.53;1812333;79;21169;-67
2021/01/05 06:10:52;;;;;;;20.30;12.97;;;;;;;0.05;100.00;100245.91;1812599;79;21087;-65
2021/01/05 06:13:19;;;;;;;26.70;16.90;;;;;;;-0.03;100.00;100252.85;1793942;79;21138;-67
2021/01/05 06:15:46;;;;;;;25.53;16.67;;;;;;;-0.06;100.00;100247.91;1780648;79;21383;-67
2021/01/05 06:18:16;;;;;;;31.23;18.63;;;;;;;0.01;100.00;100244.08;1787424;79;21019;-66
2021/01/05 06:20:43;;;;;;;25.40;16.03;;;;;;;0.07;100.00;100246.06;1804708;79;20987;-67
2021/01/05 06:23:11;;;;;;;34.90;22.67;;;;;;;0.16;100.00;100237.11;1779713;80;21157;-65
2021/01/05 06:25:38;;;;;;;40.50;24.90;;;;;;;0.16;100.00;100239.75;1779900;80;21142;-65
2021/01/05 06:28:06;;;;;;;38.00;23.87;;;;;;;0.14;100.00;100224.57;1779871;80;21611;-65
2021/01/05 06:30:34;;;;;;;36.23;24.87;;;;;;;0.13;100.00;100230.02;1783912;79;21074;-65
2021/01/05 06:33:01;;;;;;;36.87;24.47;;;;;;;0.15;100.00;100234.13;1811877;79;21542;-67
2021/01/05 06:35:28;;;;;;;35.23;21.10;;;;;;;0.16;100.00;100237.11;1811961;78;20983;-64
2021/01/05 06:37:56;;;;;;;27.47;19.10;;;;;;;0.17;100.00;100228.19;1811852;79;21118;-66
2021/01/05 06:40:26;;;;;;;24.00;16.27;;;;;;;0.13;100.00;100231.34;1806895;79;21296;-65
2021/01/05 06:42:55;;;;;;;29.40;15.40;;;;;;;0.12;100.00;100225.72;1779790;80;21605;-64
2021/01/05 06:45:27;;;;;;;32.37;19.70;;;;;;;0.10;100.00;100210.01;1779988;80;21568;-64
2021/01/05 06:47:55;;;;;;;33.17;21.57;;;;;;;0.08;100.00;100219.12;1780054;80;21568;-70
2021/01/05 06:50:26;;;;;;;32.37;21.67;;;;;;;0.08;100.00;100221.27;1781883;79;21019;-64
2021/01/05 06:52:53;;;;;;;26.10;20.23;;;;;;;0.09;100.00;100235.32;1812951;79;21330;-65
2021/01/05 06:55:21;;;;;;;27.80;18.50;;;;;;;0.09;100.00;100235.32;1811857;78;21606;-64
2021/01/05 06:57:49;;;;;;;22.10;15.80;;;;;;;0.14;100.00;100229.03;1740651;78;21624;-64
2021/01/05 07:00:20;;;;;;;25.63;17.63;;;;;;;0.10;100.00;100237.77;1735293;80;21779;-65
2021/01/05 07:02:47;;;;;;;28.67;17.40;;;;;;;0.12;100.00;100225.72;1739436;80;21152;-63
2021/01/05 07:05:17;;;;;;;28.57;18.47;;;;;;;0.14;100.00;100224.57;1742943;81;22760;-65
2021/01/05 07:07:45;;;;;;;25.70;14.93;;;;;;;0.16;100.00;100233.14;1744110;81;21628;-64
2021/01/05 07:10:14;;;;;;;30.17;16.27;;;;;;;0.11;100.00;100237.28;1744221;82;21112;-65
2021/01/05 07:12:43;;;;;;;27.77;15.73;;;;;;;0.11;100.00;100236.78;1744196;82;21215;-65
2021/01/05 07:15:12;;;;;;;28.03;17.30;;;;;;;0.12;100.00;100234.97;1721798;82;21131;-64
2021/01/05 07:17:39;;;;;;;27.57;17.27;;;;;;;0.10;100.00;100235.12;1739051;80;21440;-67
2021/01/05 07:20:10;;;;;;;25.27;16.27;;;;;;;0.10;100.00;100236.45;1774852;80;21112;-64
2021/01/05 07:22:37;;;;;;;28.43;19.93;;;;;;;0.16;100.00;100230.98;1774996;80;21552;-63
2021/01/05 07:25:09;;;;;;;36.93;24.03;;;;;;;0.18;100.00;100232.98;1773522;80;20998;-65
2021/01/05 07:27:36;;;;;;;31.97;22.07;;;;;;;0.21;100.00;100236.59;1717556;81;21124;-66
2021/01/05 07:30:07;;;;;;;23.00;16.37;;;;;;;0.21;100.00;100236.10;1713235;82;21381;-65
2021/01/05 07:32:34;;;;;;;32.07;20.97;;;;;;;0.17;100.00;100237.44;1713057;83;20998;-64
2021/01/05 07:35:03;;;;;;;31.10;17.47;;;;;;;0.18;100.00;100246.20;1718747;80;21006;-64
2021/01/05 07:37:35;;;;;;;34.57;21.80;;;;;;;0.20;100.00;100247.67;1769450;80;21029;-63
2021/01/05 07:40:10;;;;;;;34.43;21.87;;;;;;;0.20;100.00;100245.02;1774666;80;21163;-65
2021/01/05 07:42:38;;;;;;;34.30;22.47;;;;;;;0.20;100.00;100244.20;1776806;80;21308;-65
2021/01/05 07:45:09;;;;;;;31.77;21.77;;;;;;;0.18;100.00;100244.88;1782757;80;21026;-64
2021/01/05 07:47:37;;;;;;;29.30;16.97;;;;;;;0.17;100.00;100236.13;1752207;80;21018;-66
2021/01/05 07:50:08;;;;;;;31.63;21.47;;;;;;;0.17;100.00;100233.97;1751824;81;21017;-65
2021/01/05 07:52:40;;;;;;;36.70;22.93;;;;;;;0.19;100.00;100234.11;1751337;81;22216;-64
2021/01/05 07:55:18;;;;;;;;;;;;;;;0.25;100.00;100229.97;1754655;80;21199;-64
2021/01/05 07:57:53;;;;;;;38.10;22.77;;;;;;;0.34;100.00;100231.59;1885902;76;23353;-69
2021/01/05 08:00:27;;;;;;;27.00;16.80;;;;;;;0.27;100.00;100226.17;1784003;80;21038;-66
2021/01/05 08:02:56;;;;;;;33.83;19.95;;;;;;;0.30;100.00;100227.64;1816260;79;26673;-67
2021/01/05 08:05:26;;;;;;;31.50;21.33;;;;;;;0.24;100.00;100233.11;1757219;80;21011;-65
2021/01/05 08:07:54;;;;;;;32.43;21.10;;;;;;;0.26;100.00;100236.91;1756358;81;20999;-65
2021/01/05 08:10:33;;;;;;;30.37;19.87;;;;;;;0.31;100.00;100242.52;1752855;81;21002;-63
2021/01/05 08:13:04;;;;;;;49.87;24.57;;;;;;;0.38;100.00;100245.62;1783686;80;20999;-64
2021/01/05 08:15:33;;;;;;;27.20;16.00;;;;;;;0.37;100.00;100237.88;1725827;80;21392;-66
2021/01/05 08:18:02;;;;;;;32.30;17.17;;;;;;;0.33;100.00;100229.97;1792327;79;21007;-64
2021/01/05 08:20:31;;;;;;;40.40;23.87;;;;;;;0.32;100.00;100241.53;1784134;80;20987;-62
2021/01/05 08:23:00;;;;;;;27.83;17.60;;;;;;;0.31;100.00;100238.55;1787424;80;21137;-64
2021/01/05 08:25:30;;;;;;;30.73;21.13;;;;;;;0.30;100.00;100237.72;1781889;80;21125;-66
2021/01/05 08:27:58;;;;;;;32.67;22.33;;;;;;;0.35;100.00;100226.63;1788978;80;22316;-64
2021/01/05 08:30:32;;;;;;;33.57;22.27;;;;;;;0.35;100.00;100228.78;1757830;81;21170;-65
2021/01/05 08:33:02;;;;;;;31.33;18.60;;;;;;;0.36;100.00;100229.61;1789264;80;21575;-65
2021/01/05 08:35:31;;;;;;;27.63;20.37;;;;;;;0.38;100.00;100228.95;1783645;79;21126;-64
2021/01/05 08:37:58;;;;;;;35.13;22.20;;;;;;;0.38;100.00;100213.87;1793486;79;21144;-66
2021/01/05 08:40:32;;;;;;;27.57;19.47;;;;;;;0.46;100.00;100213.53;1764641;81;21331;-64
2021/01/05 08:43:03;;;;;;;37.05;22.07;;;;;;;0.50;100.00;100213.52;1764784;81;21195;-65
2021/01/05 08:45:31;;;;;;;25.60;16.23;;;;;;;0.50;100.00;100206.89;1765272;79;21114;-67
2021/01/05 08:48:00;;;;;;;29.13;17.23;;;;;;;0.55;100.00;100204.56;1764549;81;21153;-63
2021/01/05 08:50:29;;;;;;;34.70;24.17;;;;;;;0.55;100.00;100198.77;1764614;81;21152;-66
2021/01/05 08:52:59;;;;;;;28.23;19.67;;;;;;;0.59;100.00;100193.95;1764569;81;21500;-66
2021/01/05 08:55:27;;;;;;;31.53;20.70;;;;;;;0.63;100.00;100194.75;1764315;79;21229;-65
2021/01/05 08:57:54;;;;;;;27.80;16.73;;;;;;;0.64;100.00;100188.47;1761516;79;21018;-66
2021/01/05 09:00:22;;;;;;;29.93;20.37;;;;;;;0.61;100.00;100186.67;1762372;80;21173;-66
2021/01/05 09:02:49;;;;;;;34.30;21.67;;;;;;;0.59;100.00;100190.80;1761551;81;21543;-65
2021/01/05 09:05:17;;;;;;;29.83;17.67;;;;;;;0.57;100.00;100184.05;1760966;81;21276;-65
2021/01/05 09:07:44;;;;;;;32.13;19.67;;;;;;;0.55;100.00;100178.92;1760843;80;21645;-65
2021/01/05 09:10:20;;;;;;;32.37;17.90;;;;;;;0.53;100.00;100172.96;1760398;81;21255;-65
2021/01/05 09:12:48;;;;;;;32.93;20.43;;;;;;;0.58;100.00;100164.01;1760321;81;21169;-66
2021/01/05 09:15:25;;;;;;;27.37;18.63;;;;;;;0.59;100.00;100152.43;1826782;76;22245;-65
2021/01/05 09:17:53;;;;;;;37.90;22.17;;;;;;;0.55;100.00;100162.22;1788377;78;21037;-63
2021/01/05 09:20:23;;;;;;;37.93;18.13;;;;;;;0.57;100.00;100153.62;1784955;80;21145;-64
2021/01/05 09:22:53;;;;;;;43.93;24.40;;;;;;;0.52;100.00;100156.79;1784961;80;21047;-64
2021/01/05 09:25:21;;;;;;;41.13;24.43;;;;;;;0.50;100.00;100154.80;1755435;80;21078;-64
2021/01/05 09:27:52;;;;;;;36.70;21.70;;;;;;;0.52;100.00;100164.73;1812692;79;20963;-65
2021/01/05 09:30:21;;;;;;;33.97;21.07;;;;;;;0.50;100.00;100174.64;1817219;79;20999;-66
2021/01/05 09:32:48;;;;;;;36.27;20.43;;;;;;;0.53;100.00;100167.67;1817315;79;22221;-65
2021/01/05 09:35:16;;;;;;;38.73;22.13;;;;;;;0.60;100.00;100162.02;1798478;79;21019;-64
2021/01/05 09:37:45;;;;;;;35.23;21.97;;;;;;;0.66;100.00;100165.80;1809463;79;20979;-66
2021/01/05 09:40:14;;;;;;;42.30;22.40;;;;;;;0.70;100.00;100167.92;1817066;79;20955;-67
2021/01/05 09:42:43;;;;;;;32.65;22.32;;;;;;;0.71;100.00;100160.81;1817730;79;21598;-64
2021/01/05 09:45:12;;;;;;;45.50;25.03;;;;;;;0.69;100.00;100164.95;1815718;79;21237;-65
2021/01/05 09:47:39;;;;;;;39.03;23.97;;;;;;;0.65;100.00;100165.47;1817248;79;21134;-66
2021/01/05 09:50:09;;;;;;;36.17;22.33;;;;;;;0.63;100.00;100168.78;1817065;79;21105;-65
2021/01/05 09:52:37;;;;;;;33.40;20.17;;;;;;;0.64;100.00;100172.58;1817257;79;21600;-67
2021/01/05 09:55:06;;;;;;;32.57;21.23;;;;;;;0.69;100.00;100160.16;1812522;79;21109;-66
2021/01/05 09:57:33;;;;;;;38.60;24.77;;;;;;;0.73;100.00;100168.89;1761519;80;22263;-63
2021/01/05 10:00:01;;;;;;;36.00;22.80;;;;;;;0.76;100.00;100162.44;1753939;81;20999;-65
2021/01/05 10:02:30;;;;;;;34.38;21.05;;;;;;;0.75;100.00;100148.87;1753793;81;21020;-66
2021/01/05 10:04:58;;;;;;;27.40;19.43;;;;;;;0.72;100.00;100154.53;1775097;80;21153;-64
2021/01/05 10:07:26;;;;;;;29.10;19.13;;;;;;;0.73;100.00;100146.39;1752319;81;21093;-65
2021/01/05 10:09:55;;;;;;;37.67;25.67;;;;;;;0.75;100.00;100139.11;1752305;81;21531;-66
2021/01/05 10:12:24;;;;;;;30.63;21.23;;;;;;;0.75;100.00;100141.75;1752327;81;21638;-65
2021/01/05 10:14:51;;;;;;;28.77;19.57;;;;;;;0.80;100.00;100116.91;1770440;80;21046;-66
2021/01/05 10:17:20;;;;;;;27.73;19.77;;;;;;;0.86;100.00;100121.47;1784838;79;21026;-67
2021/01/05 10:19:47;;;;;;;29.87;19.02;;;;;;;0.86;100.00;100118.03;1784919;80;22128;-65
2021/01/05 10:22:14;;;;;;;33.80;19.27;;;;;;;0.82;100.00;100110.91;1784985;80;21198;-65
2021/01/05 10:24:42;;;;;;;28.60;19.98;;;;;;;0.78;100.00;100103.00;1785036;80;21594;-66
2021/01/05 10:27:09;;;;;;;22.30;16.50;;;;;;;0.80;100.00;100104.16;1784696;80;21024;-68
2021/01/05 10:29:37;;;;;;;24.30;15.65;;;;;;;0.82;100.00;100109.59;1780905;78;21693;-73
2021/01/05 10:32:04;;;;;;;26.43;16.00;;;;;;;0.78;100.00;100100.86;1760564;81;21144;-70
2021/01/05 10:34:32;;;;;;;27.13;17.27;;;;;;;0.77;100.00;100100.03;1724481;82;22161;-72
2021/01/05 10:37:00;;;;;;;28.42;18.62;;;;;;;0.73;100.00;100086.00;1781337;80;21014;-67
2021/01/05 10:39:29;;;;;;;35.20;20.15;;;;;;;0.78;100.00;100105.66;1751572;81;21106;-71
2021/01/05 10:41:58;;;;;;;41.13;25.62;;;;;;;0.85;100.00;100103.96;1751724;81;21137;-68
2021/01/05 10:44:25;;;;;;;32.50;21.50;;;;;;;0.84;100.00;100094.37;1751738;80;21142;-69
2021/01/05 10:47:00;;;;;;;36.63;22.35;;;;;;;0.84;100.00;100082.95;1773977;80;21572;-67
2021/01/05 10:49:28;;;;;;;35.28;20.75;;;;;;;0.77;100.00;100083.32;1755196;80;21109;-70
2021/01/05 10:51:57;;;;;;;32.13;18.10;;;;;;;0.78;100.00;100089.77;1784218;80;21011;-69
2021/01/05 10:54:27;;;;;;;35.28;22.32;;;;;;;0.82;100.00;100089.73;1784069;80;21046;-76
2021/01/05 10:57:03;;;;;;;29.67;19.10;;;;;;;0.85;100.00;100087.25;1783560;79;21137;-72
2021/01/05 10:59:31;;;;;;;43.60;26.17;;;;;;;0.86;100.00;100094.20;1784227;80;21414;-68
2021/01/05 11:02:02;;;;;;;41.80;22.70;;;;;;;0.87;100.00;100082.58;1784307;80;21035;-68
2021/01/05 11:04:30;;;;;;;38.27;24.97;;;;;;;0.88;100.00;100089.03;1784157;80;20994;-69
2021/01/05 11:07:05;;;;;;;44.20;26.80;;;;;;;0.90;100.00;100080.09;1769971;80;21122;-70
2021/01/05 11:09:36;;;;;;;37.77;23.17;;;;;;;0.88;100.00;100082.42;1755303;80;21548;-66
2021/01/05 11:12:09;;;;;;;50.50;29.52;;;;;;;0.93;100.00;100075.27;1755517;80;21200;-65
2021/01/05 11:14:37;;;;;;;;;;;;;;;0.97;100.00;100059.83;1786893;80;21567;-73
2021/01/05 11:17:05;;;;;;;59.57;32.30;;;;;;;1.01;100.00;100055.84;1749797;82;20134;-66
2021/01/05 11:19:33;;;;;;;59.88;33.28;;;;;;;0.96;100.00;100048.41;1731344;82;21188;-69
2021/01/05 11:22:04;;;;;;;52.60;31.25;;;;;;;0.96;100.00;100052.38;1784421;80;21153;-67
2021/01/05 11:24:37;;;;;;;55.83;31.45;;;;;;;1.00;100.00;100050.23;1784035;80;21263;-70
2021/01/05 11:27:06;;;;;;;53.13;32.60;;;;;;;0.95;100.00;100064.50;1734967;82;21116;-70
2021/01/05 11:29:34;;;;;;;51.88;33.83;;;;;;;0.89;100.00;100060.73;1716275;83;21208;-69
2021/01/05 11:32:09;;;;;;;53.68;28.83;;;;;;;0.89;100.00;100055.44;1749557;81;21165;-68
2021/01/05 11:34:37;;;;;;;58.05;33.23;;;;;;;0.92;100.00;100045.80;1749150;81;21099;-67
2021/01/05 11:37:08;;;;;;;58.53;32.23;;;;;;;0.94;100.00;100037.20;1744056;81;21208;-71
2021/01/05 11:39:37;;;;;;;64.42;32.35;;;;;;;0.96;100.00;100035.17;1749813;82;21025;-69
2021/01/05 11:42:06;;;;;;;45.92;26.27;;;;;;;0.97;100.00;100032.02;1731085;82;21590;-71
2021/01/05 11:44:35;;;;;;;52.77;30.57;;;;;;;0.99;100.00;100033.51;1784381;80;21010;-70
2021/01/05 11:47:02;;;;;;;43.65;25.35;;;;;;;0.95;100.00;100039.34;1778396;80;21117;-71